Tahoua, Niger
Current Conditions -  °F | °C
As of 8:00 AM on Wednesday 26 Nov 2014 (Local Time) from DRRN Reporting Station
Sand / Dust Storm Sand / Dust Storm  
Wind Chill: 73°   Ceiling: Unl
Heat Index: 73°   Visibility: 2.1mi
Dew Point: 37°   Wind: 2mph
Humidity: 27%   Direction: NA
Pressure: 29.91"   Gusts: NA
Location:  14.9°N, 5.26°E
Report Text: DRRN 260700Z VRB02KT 3500 DU NSC 23/03 Q1013 NOSIG
Loading
Personal Weather Stations






























Interactive Weather Map New forecast layout! Learn more

10-Day Weather Forecast

Advertisements
Track Severe Weather on mobile